createdAt,value
2022-08-14T00:00:14.051Z,99.90
2022-08-14T00:02:17.201Z,99.90
2022-08-14T00:04:34.470Z,99.90
2022-08-14T00:06:38.676Z,99.90
2022-08-14T00:08:44.631Z,99.90
2022-08-14T00:10:52.101Z,99.90
2022-08-14T00:12:57.232Z,99.90
2022-08-14T00:15:00.096Z,99.90
2022-08-14T00:17:03.037Z,99.90
2022-08-14T00:19:19.746Z,99.90
2022-08-14T00:21:28.194Z,99.90
2022-08-14T00:23:33.646Z,99.90
2022-08-14T00:25:42.546Z,99.90
2022-08-14T00:27:45.699Z,99.90
2022-08-14T00:29:51.842Z,99.90
2022-08-14T00:31:56.241Z,99.90
2022-08-14T00:34:35.283Z,99.90
2022-08-14T00:36:37.228Z,99.90
2022-08-14T00:38:46.573Z,99.90
2022-08-14T00:40:50.579Z,99.90
2022-08-14T00:42:55.967Z,99.90
2022-08-14T00:44:58.999Z,99.90
2022-08-14T00:47:03.711Z,99.90
2022-08-14T00:49:11.643Z,99.90
2022-08-14T00:51:18.441Z,99.90
2022-08-14T00:53:23.516Z,99.90
2022-08-14T00:55:30.123Z,99.90
2022-08-14T00:57:35.581Z,99.90
2022-08-14T00:59:38.314Z,99.90
2022-08-14T01:01:42.957Z,99.90
2022-08-14T01:03:46.031Z,99.90
2022-08-14T01:05:56.917Z,99.90
2022-08-14T01:08:01.859Z,99.90
2022-08-14T01:10:06.401Z,99.90
2022-08-14T01:12:10.919Z,99.90
2022-08-14T01:14:25.670Z,99.90
2022-08-14T01:16:31.567Z,99.90
2022-08-14T01:18:53.356Z,99.90
2022-08-14T01:21:08.193Z,99.90
2022-08-14T01:23:16.156Z,99.90
2022-08-14T01:25:21.779Z,99.90
2022-08-14T01:27:25.149Z,99.90
2022-08-14T01:29:58.191Z,99.90
2022-08-14T01:31:53.147Z,99.90
2022-08-14T01:35:16.637Z,99.90
2022-08-14T01:36:23.223Z,99.90
2022-08-14T01:38:31.923Z,99.90
2022-08-14T01:40:40.622Z,99.90
2022-08-14T01:42:45.041Z,99.90
2022-08-14T01:44:54.310Z,99.90
2022-08-14T01:47:00.999Z,99.90
2022-08-14T01:49:10.201Z,99.90
2022-08-14T01:51:18.782Z,99.90
2022-08-14T01:53:22.648Z,99.90
2022-08-14T01:55:32.564Z,99.90
2022-08-14T01:58:01.331Z,99.90
2022-08-14T02:00:00.489Z,99.90
2022-08-14T02:02:19.876Z,99.90
2022-08-14T02:04:55.962Z,99.90
2022-08-14T02:06:51.766Z,99.90
2022-08-14T02:08:57.223Z,99.90
2022-08-14T02:11:18.883Z,99.90
2022-08-14T02:13:22.894Z,99.90
2022-08-14T02:15:26.544Z,99.90
2022-08-14T02:17:30.825Z,99.90
2022-08-14T02:19:35.787Z,99.90
2022-08-14T02:21:46.878Z,99.90
2022-08-14T02:23:54.335Z,99.90
2022-08-14T02:25:59.733Z,99.90
2022-08-14T02:28:57.438Z,99.90
2022-08-14T02:30:46.499Z,99.90
2022-08-14T02:32:50.432Z,99.90
2022-08-14T02:34:53.153Z,99.90
2022-08-14T02:37:06.939Z,99.90
2022-08-14T02:39:11.079Z,99.90
2022-08-14T02:41:14.241Z,99.90
2022-08-14T02:43:17.695Z,99.90
2022-08-14T02:45:44.214Z,99.90
2022-08-14T02:47:47.468Z,99.90
2022-08-14T02:49:54.583Z,99.90
2022-08-14T02:52:00.035Z,99.90
2022-08-14T02:54:03.713Z,99.90
2022-08-14T02:56:29.667Z,99.90
2022-08-14T02:58:42.349Z,99.90
2022-08-14T03:00:45.128Z,99.90
2022-08-14T03:02:56.027Z,99.90
2022-08-14T03:05:01.872Z,99.90
2022-08-14T03:07:07.512Z,99.90
2022-08-14T03:09:14.788Z,99.90
2022-08-14T03:11:18.918Z,99.90
2022-08-14T03:13:22.390Z,99.90
2022-08-14T03:15:25.367Z,99.90
2022-08-14T03:17:31.844Z,99.90
2022-08-14T03:19:44.162Z,99.90
2022-08-14T03:21:47.003Z,99.90
2022-08-14T03:24:21.444Z,99.90
2022-08-14T03:26:30.172Z,99.90
2022-08-14T03:28:33.721Z,99.90
2022-08-14T03:30:40.915Z,99.90
2022-08-14T03:32:44.673Z,99.90
2022-08-14T03:34:55.734Z,99.90
2022-08-14T03:37:51.035Z,99.90
2022-08-14T03:39:24.319Z,99.90
2022-08-14T03:41:33.129Z,99.90
2022-08-14T03:43:35.850Z,99.90
2022-08-14T03:45:47.876Z,99.90
2022-08-14T03:47:58.284Z,99.90
2022-08-14T03:50:04.486Z,99.90
2022-08-14T03:52:37.711Z,99.90
2022-08-14T03:54:35.824Z,99.90
2022-08-14T03:56:40.615Z,99.90
2022-08-14T03:58:51.444Z,99.90
2022-08-14T04:00:54.074Z,99.90
2022-08-14T04:02:56.623Z,99.90
2022-08-14T04:05:11.673Z,99.90
2022-08-14T04:07:15.194Z,99.90
2022-08-14T04:09:18.271Z,99.90
2022-08-14T04:11:22.582Z,99.90
2022-08-14T04:13:27.943Z,99.90
2022-08-14T04:15:56.672Z,99.90
2022-08-14T04:17:56.905Z,99.90
2022-08-14T04:20:04.419Z,99.90
2022-08-14T04:22:07.045Z,99.90
2022-08-14T04:24:10.310Z,99.90
2022-08-14T04:26:27.445Z,99.90
2022-08-14T04:29:05.439Z,99.90
2022-08-14T04:31:08.546Z,99.90
2022-08-14T04:33:20.816Z,99.90
2022-08-14T04:35:24.179Z,99.90
2022-08-14T04:37:58.606Z,99.90
2022-08-14T04:40:20.037Z,99.90
2022-08-14T04:42:46.794Z,99.90
2022-08-14T04:45:00.426Z,99.90
2022-08-14T04:47:23.677Z,99.90
2022-08-14T04:49:26.559Z,99.90
2022-08-14T04:51:30.082Z,99.90
2022-08-14T04:53:43.778Z,99.90
2022-08-14T04:55:49.826Z,99.90
2022-08-14T04:57:54.124Z,99.90
2022-08-14T04:59:56.954Z,99.90
2022-08-14T05:02:00.245Z,99.90
2022-08-14T05:04:03.009Z,99.90
2022-08-14T05:06:35.003Z,99.90
2022-08-14T05:08:50.601Z,99.90
2022-08-14T05:10:58.739Z,99.90
2022-08-14T05:13:12.656Z,99.90
2022-08-14T05:15:32.093Z,99.90
2022-08-14T05:17:44.063Z,99.90
2022-08-14T05:21:54.402Z,99.90
2022-08-14T05:22:20.271Z,99.90
2022-08-14T05:24:22.825Z,99.90
2022-08-14T05:26:25.327Z,99.90
2022-08-14T05:28:30.950Z,99.90
2022-08-14T05:30:35.761Z,99.90
2022-08-14T05:32:38.893Z,99.90
2022-08-14T05:34:41.853Z,99.90
2022-08-14T05:36:50.698Z,99.90
2022-08-14T05:39:06.370Z,99.90
2022-08-14T05:41:18.652Z,99.90
2022-08-14T05:43:21.491Z,99.90
2022-08-14T05:45:25.708Z,99.90
2022-08-14T05:47:39.178Z,99.90
2022-08-14T05:49:42.235Z,99.90
2022-08-14T05:51:46.966Z,99.90
2022-08-14T05:54:00.361Z,99.90
2022-08-14T05:56:12.902Z,99.90
2022-08-14T05:58:15.902Z,99.90
2022-08-14T06:00:28.302Z,99.90
2022-08-14T06:02:33.450Z,99.90
2022-08-14T06:04:36.184Z,99.90
2022-08-14T06:06:38.982Z,99.90
2022-08-14T06:08:42.154Z,99.90
2022-08-14T06:10:45.314Z,99.90
2022-08-14T06:12:55.922Z,99.90
2022-08-14T06:15:00.198Z,99.90
2022-08-14T06:17:02.761Z,99.90
2022-08-14T06:19:06.633Z,99.90
2022-08-14T06:21:15.924Z,99.90
2022-08-14T06:23:20.398Z,99.90
2022-08-14T06:25:26.090Z,99.90
2022-08-14T06:27:33.885Z,99.90
2022-08-14T06:29:37.429Z,99.90
2022-08-14T06:31:40.287Z,99.90
2022-08-14T06:35:02.313Z,99.90
2022-08-14T06:36:06.437Z,99.90
2022-08-14T06:38:09.123Z,99.90
2022-08-14T06:40:27.345Z,99.90
2022-08-14T06:42:42.473Z,99.90
2022-08-14T06:44:45.297Z,99.90
2022-08-14T06:46:49.272Z,99.90
2022-08-14T06:48:52.038Z,99.90
2022-08-14T06:50:58.405Z,99.90
2022-08-14T06:53:01.203Z,99.90
2022-08-14T06:55:06.151Z,99.90
2022-08-14T06:57:10.764Z,99.90
2022-08-14T06:59:19.668Z,99.90
2022-08-14T07:01:41.678Z,99.90
2022-08-14T07:04:02.960Z,99.90
2022-08-14T07:06:11.767Z,99.90
2022-08-14T07:08:29.669Z,99.90
2022-08-14T07:10:34.202Z,99.90
2022-08-14T07:13:01.444Z,99.90
2022-08-14T07:15:01.539Z,99.90
2022-08-14T07:17:04.367Z,99.90
2022-08-14T07:19:09.002Z,99.90
2022-08-14T07:21:11.793Z,99.90
2022-08-14T07:23:20.732Z,99.90
2022-08-14T07:25:32.152Z,99.90
2022-08-14T07:27:36.069Z,99.90
2022-08-14T07:29:38.944Z,99.90
2022-08-14T07:31:43.112Z,99.90
2022-08-14T07:33:50.759Z,99.90
2022-08-14T07:35:58.180Z,99.90
2022-08-14T07:38:19.920Z,99.90
2022-08-14T07:40:27.426Z,99.90
2022-08-14T07:42:33.086Z,98.70
2022-08-14T07:44:45.996Z,98.40
2022-08-14T07:46:52.685Z,98.50
2022-08-14T07:48:57.030Z,98.50
2022-08-14T07:51:03.123Z,98.30
2022-08-14T07:53:16.791Z,97.80
2022-08-14T07:55:21.202Z,99.50
2022-08-14T07:57:25.040Z,98.50
2022-08-14T07:59:42.269Z,99.40
2022-08-14T08:01:51.051Z,97.90
2022-08-14T08:04:00.083Z,97.30
2022-08-14T08:06:03.274Z,97.30
2022-08-14T08:08:27.225Z,97.70
2022-08-14T08:11:01.492Z,98.20
2022-08-14T08:13:02.886Z,96.70
2022-08-14T08:15:08.066Z,96.60
2022-08-14T08:17:12.379Z,95.50
2022-08-14T08:19:18.963Z,93.70
2022-08-14T08:21:22.531Z,94.30
2022-08-14T08:23:40.122Z,93.80
2022-08-14T08:25:46.185Z,91.20
2022-08-14T08:27:56.641Z,91.20
2022-08-14T08:30:10.158Z,86.10
2022-08-14T08:32:14.152Z,88.40
2022-08-14T08:34:23.790Z,81.90
2022-08-14T08:36:29.838Z,83.70
2022-08-14T08:39:17.928Z,79.80
2022-08-14T08:41:00.156Z,82.00
2022-08-14T08:43:06.712Z,81.10
2022-08-14T08:45:17.515Z,81.10
2022-08-14T08:47:20.118Z,78.80
2022-08-14T08:49:22.778Z,80.00
2022-08-14T08:51:38.678Z,80.60
2022-08-14T08:53:46.261Z,75.20
2022-08-14T08:55:51.551Z,76.20
2022-08-14T08:58:02.130Z,75.90
2022-08-14T09:00:24.480Z,75.90
2022-08-14T09:02:28.767Z,76.70
2022-08-14T09:04:36.686Z,77.20
2022-08-14T09:07:00.357Z,75.90
2022-08-14T09:09:33.098Z,72.40
2022-08-14T09:11:36.500Z,67.60
2022-08-14T09:13:39.127Z,68.20
2022-08-14T09:15:46.660Z,68.60
2022-08-14T09:17:52.671Z,69.40
2022-08-14T09:19:57.781Z,69.30
2022-08-14T09:22:32.948Z,68.50
2022-08-14T09:24:36.298Z,62.40
2022-08-14T09:26:49.373Z,62.60
2022-08-14T09:28:52.919Z,65.00
2022-08-14T09:30:57.829Z,66.80
2022-08-14T09:33:11.705Z,66.20
2022-08-14T09:35:55.017Z,62.70
2022-08-14T09:38:26.206Z,63.50
2022-08-14T09:40:56.101Z,61.10
2022-08-14T09:43:34.881Z,62.10
2022-08-14T09:45:52.994Z,58.40
2022-08-14T09:47:58.122Z,59.40
2022-08-14T09:50:00.766Z,59.70
2022-08-14T09:52:33.069Z,57.30
2022-08-14T09:54:40.396Z,55.40
2022-08-14T09:56:51.531Z,55.90
2022-08-14T09:59:16.234Z,56.30
2022-08-14T10:01:21.337Z,56.20
2022-08-14T10:03:33.256Z,57.30
2022-08-14T10:05:39.204Z,53.70
2022-08-14T10:07:53.698Z,49.70
2022-08-14T10:10:02.604Z,52.10
2022-08-14T10:12:28.688Z,53.40
2022-08-14T10:14:36.997Z,52.70
2022-08-14T10:16:47.711Z,53.00
2022-08-14T10:19:01.283Z,54.20
2022-08-14T10:21:09.717Z,54.10
2022-08-14T10:23:17.866Z,50.00
2022-08-14T10:25:26.866Z,47.70
2022-08-14T10:27:29.871Z,45.90
2022-08-14T10:29:38.529Z,46.80
2022-08-14T10:31:45.576Z,46.00
2022-08-14T10:34:12.809Z,45.80
2022-08-14T10:36:37.007Z,45.10
2022-08-14T10:38:43.425Z,45.50
2022-08-14T10:40:59.367Z,46.40
2022-08-14T10:43:17.247Z,46.40
2022-08-14T10:45:22.433Z,45.60
2022-08-14T10:47:41.117Z,45.40
2022-08-14T10:50:01.545Z,44.60
2022-08-14T10:52:19.505Z,44.60
2022-08-14T10:54:35.998Z,44.60
2022-08-14T10:56:42.699Z,44.80
2022-08-14T10:58:45.613Z,44.70
2022-08-14T11:01:01.886Z,43.70
2022-08-14T11:03:13.355Z,43.80
2022-08-14T11:05:26.786Z,43.20
2022-08-14T11:07:32.109Z,43.30
2022-08-14T11:09:35.623Z,43.10
2022-08-14T11:11:43.738Z,43.40
2022-08-14T11:13:46.682Z,42.90
2022-08-14T11:15:50.397Z,43.60
2022-08-14T11:17:56.465Z,43.30
2022-08-14T11:20:16.067Z,42.60
2022-08-14T11:22:52.921Z,42.70
2022-08-14T11:24:55.619Z,43.40
2022-08-14T11:27:01.110Z,42.90
2022-08-14T11:29:05.808Z,43.20
2022-08-14T11:31:10.458Z,41.80
2022-08-14T11:33:13.582Z,41.80
2022-08-14T11:35:21.850Z,41.50
2022-08-14T11:37:36.901Z,39.90
2022-08-14T11:39:45.522Z,39.30
2022-08-14T11:41:55.769Z,38.80
2022-08-14T11:43:59.801Z,38.40
2022-08-14T11:46:03.963Z,39.10
2022-08-14T11:49:02.261Z,38.10
2022-08-14T11:50:41.530Z,40.00
2022-08-14T11:52:46.744Z,39.80
2022-08-14T11:55:02.415Z,39.90
2022-08-14T11:57:06.055Z,38.70
2022-08-14T11:59:17.567Z,38.00
2022-08-14T12:01:28.634Z,37.20
2022-08-14T12:03:51.341Z,36.90
2022-08-14T12:06:29.439Z,37.40
2022-08-14T12:08:38.645Z,36.90
2022-08-14T12:10:43.599Z,37.00
2022-08-14T12:12:46.350Z,36.80
2022-08-14T12:14:56.752Z,36.60
2022-08-14T12:17:11.783Z,36.80
2022-08-14T12:19:15.711Z,37.10
2022-08-14T12:21:24.040Z,37.20
2022-08-14T12:23:28.190Z,37.10
2022-08-14T12:25:34.723Z,37.50
2022-08-14T12:27:51.937Z,37.30
2022-08-14T12:30:02.166Z,36.40
2022-08-14T12:32:08.757Z,36.80
2022-08-14T12:34:14.763Z,37.00
2022-08-14T12:36:23.822Z,36.90
2022-08-14T12:38:45.627Z,37.50
2022-08-14T12:40:55.986Z,35.80
2022-08-14T12:43:03.279Z,36.70
2022-08-14T12:45:07.800Z,37.60
2022-08-14T12:47:17.723Z,37.90
2022-08-14T12:49:23.030Z,37.40
2022-08-14T12:51:30.888Z,37.40
2022-08-14T12:53:38.674Z,38.00
2022-08-14T12:56:18.594Z,36.80
2022-08-14T12:58:35.369Z,37.90
2022-08-14T13:00:29.847Z,37.50
2022-08-14T13:02:38.305Z,37.90
2022-08-14T13:04:43.109Z,37.40
2022-08-14T13:06:50.804Z,36.90
2022-08-14T13:09:00.306Z,36.90
2022-08-14T13:11:06.389Z,36.80
2022-08-14T13:13:15.027Z,37.00
2022-08-14T13:15:19.457Z,37.70
2022-08-14T13:17:23.132Z,38.10
2022-08-14T13:19:28.404Z,37.30
2022-08-14T13:21:31.776Z,36.30
2022-08-14T13:23:55.825Z,37.30
2022-08-14T13:26:01.113Z,37.80
2022-08-14T13:28:11.201Z,35.70
2022-08-14T13:30:24.154Z,36.00
2022-08-14T13:32:28.800Z,36.20
2022-08-14T13:34:32.024Z,37.40
2022-08-14T13:36:54.283Z,37.10
2022-08-14T13:39:00.769Z,37.00
2022-08-14T13:41:03.981Z,37.30
2022-08-14T13:43:08.907Z,37.40
2022-08-14T13:45:12.914Z,37.40
2022-08-14T13:47:16.048Z,38.00
2022-08-14T13:49:19.413Z,39.60
2022-08-14T13:51:26.093Z,39.00
2022-08-14T13:53:37.882Z,38.50
2022-08-14T13:55:44.266Z,38.20
2022-08-14T13:58:04.606Z,37.90
2022-08-14T14:00:13.883Z,38.10
2022-08-14T14:02:31.763Z,38.90
2022-08-14T14:04:46.375Z,38.90
2022-08-14T14:06:52.219Z,38.10
2022-08-14T14:08:59.102Z,37.30
2022-08-14T14:11:01.960Z,37.20
2022-08-14T14:13:05.018Z,37.70
2022-08-14T14:15:11.198Z,38.10
2022-08-14T14:17:14.221Z,37.70
2022-08-14T14:19:20.040Z,36.00
2022-08-14T14:21:26.495Z,35.60
2022-08-14T14:23:32.575Z,34.70
2022-08-14T14:25:46.403Z,35.30
2022-08-14T14:27:53.458Z,35.20
2022-08-14T14:29:59.269Z,35.10
2022-08-14T14:32:03.098Z,35.30
2022-08-14T14:34:07.549Z,38.10
2022-08-14T14:36:26.577Z,36.30
2022-08-14T14:38:33.917Z,37.20
2022-08-14T14:40:53.584Z,37.60
2022-08-14T14:43:03.755Z,37.60
2022-08-14T14:45:15.855Z,34.50
2022-08-14T14:47:22.783Z,35.70
2022-08-14T14:49:41.674Z,35.20
2022-08-14T14:51:51.164Z,35.30
2022-08-14T14:53:57.767Z,36.30
2022-08-14T14:56:51.210Z,36.80
2022-08-14T14:58:25.919Z,37.80
2022-08-14T15:00:31.104Z,36.40
2022-08-14T15:02:41.386Z,37.10
2022-08-14T15:04:46.226Z,36.20
2022-08-14T15:06:50.126Z,35.90
2022-08-14T15:08:59.774Z,34.80
2022-08-14T15:11:02.951Z,35.00
2022-08-14T15:13:07.247Z,36.40
2022-08-14T15:15:12.240Z,36.60
2022-08-14T15:17:14.961Z,36.50
2022-08-14T15:19:18.504Z,34.50
2022-08-14T15:21:21.375Z,34.60
2022-08-14T15:23:44.440Z,34.50
2022-08-14T15:25:53.205Z,35.50
2022-08-14T15:27:55.934Z,33.70
2022-08-14T15:29:59.149Z,33.80
2022-08-14T15:32:01.680Z,34.70
2022-08-14T15:34:45.551Z,34.80
2022-08-14T15:36:35.293Z,33.80
2022-08-14T15:38:42.682Z,32.30
2022-08-14T15:40:51.465Z,32.30
2022-08-14T15:42:58.840Z,32.50
2022-08-14T15:45:01.725Z,32.30
2022-08-14T15:47:09.262Z,32.90
2022-08-14T15:49:12.596Z,32.60
2022-08-14T15:51:16.300Z,33.20
2022-08-14T15:53:20.552Z,33.30
2022-08-14T15:55:23.215Z,34.00
2022-08-14T15:57:25.709Z,34.50
2022-08-14T15:59:49.933Z,35.40
2022-08-14T16:01:57.264Z,35.00
2022-08-14T16:03:59.953Z,34.90
2022-08-14T16:06:05.887Z,33.80
2022-08-14T16:08:28.913Z,34.00
2022-08-14T16:10:32.816Z,34.10
2022-08-14T16:12:45.974Z,34.70
2022-08-14T16:14:50.381Z,35.00
2022-08-14T16:17:00.513Z,36.00
2022-08-14T16:19:07.256Z,34.90
2022-08-14T16:21:12.549Z,34.70
2022-08-14T16:23:21.059Z,34.60
2022-08-14T16:25:35.481Z,35.30
2022-08-14T16:27:41.053Z,35.10
2022-08-14T16:29:44.876Z,35.80
2022-08-14T16:31:49.308Z,36.40
2022-08-14T16:33:58.747Z,37.10
2022-08-14T16:36:04.886Z,37.40
2022-08-14T16:38:45.535Z,38.10
2022-08-14T16:41:11.120Z,37.70
2022-08-14T16:43:15.168Z,37.10
2022-08-14T16:45:23.574Z,37.20
2022-08-14T16:47:32.071Z,37.50
2022-08-14T16:50:02.960Z,38.50
2022-08-14T16:52:06.194Z,38.80
2022-08-14T16:54:35.241Z,38.30
2022-08-14T16:56:47.838Z,37.70
2022-08-14T16:59:09.376Z,37.00
2022-08-14T17:01:25.209Z,37.30
2022-08-14T17:03:30.223Z,38.00
2022-08-14T17:05:46.898Z,38.50
2022-08-14T17:08:32.829Z,38.10
2022-08-14T17:10:47.923Z,38.00
2022-08-14T17:12:51.583Z,38.30
2022-08-14T17:14:57.661Z,37.90
2022-08-14T17:17:00.259Z,38.80
2022-08-14T17:19:09.645Z,39.30
2022-08-14T17:21:19.438Z,40.10
2022-08-14T17:23:29.881Z,40.80
2022-08-14T17:25:37.136Z,40.90
2022-08-14T17:27:40.115Z,41.60
2022-08-14T17:29:56.531Z,42.10
2022-08-14T17:32:21.893Z,42.70
2022-08-14T17:34:26.110Z,43.30
2022-08-14T17:36:33.077Z,44.00
2022-08-14T17:38:41.181Z,44.30
2022-08-14T17:40:43.973Z,45.20
2022-08-14T17:42:51.290Z,45.20
2022-08-14T17:45:01.347Z,46.00
2022-08-14T17:47:06.938Z,45.80
2022-08-14T17:49:18.235Z,45.20
2022-08-14T17:51:23.986Z,45.60
2022-08-14T17:53:34.112Z,45.60
2022-08-14T17:56:01.350Z,45.80
2022-08-14T17:58:01.346Z,46.20
2022-08-14T18:00:24.899Z,46.90
2022-08-14T18:02:31.311Z,47.10
2022-08-14T18:04:35.523Z,47.80
2022-08-14T18:06:58.718Z,48.30
2022-08-14T18:09:04.787Z,49.40
2022-08-14T18:11:15.349Z,49.00
2022-08-14T18:13:18.764Z,49.10
2022-08-14T18:15:44.401Z,48.90
2022-08-14T18:17:54.563Z,52.30
2022-08-14T18:19:57.997Z,50.40
2022-08-14T18:22:05.628Z,50.00
2022-08-14T18:24:29.606Z,50.20
2022-08-14T18:26:36.997Z,51.50
2022-08-14T18:28:51.634Z,56.00
2022-08-14T18:31:20.658Z,58.20
2022-08-14T18:33:23.282Z,61.40
2022-08-14T18:35:45.878Z,63.70
2022-08-14T18:38:26.180Z,65.30
2022-08-14T18:40:50.970Z,66.80
2022-08-14T18:43:02.157Z,67.90
2022-08-14T18:45:12.891Z,69.50
2022-08-14T18:47:18.794Z,70.70
2022-08-14T18:49:21.750Z,71.60
2022-08-14T18:51:45.190Z,73.10
2022-08-14T18:53:58.327Z,73.40
2022-08-14T18:56:09.495Z,74.70
2022-08-14T18:58:26.708Z,75.90
2022-08-14T19:00:33.876Z,76.00
2022-08-14T19:02:42.725Z,76.90
2022-08-14T19:04:45.638Z,78.20
2022-08-14T19:06:56.055Z,79.00
2022-08-14T19:08:59.351Z,79.90
2022-08-14T19:11:05.372Z,79.60
2022-08-14T19:13:12.381Z,79.00
2022-08-14T19:15:25.781Z,79.10
2022-08-14T19:18:14.762Z,77.90
2022-08-14T19:20:08.693Z,77.70
2022-08-14T19:22:29.552Z,78.50
2022-08-14T19:24:35.542Z,78.90
2022-08-14T19:26:54.748Z,79.40
2022-08-14T19:28:58.450Z,80.00
2022-08-14T19:31:24.908Z,79.40
2022-08-14T19:33:45.766Z,77.40
2022-08-14T19:35:59.675Z,78.00
2022-08-14T19:38:02.957Z,78.30
2022-08-14T19:40:15.154Z,79.70
2022-08-14T19:42:30.559Z,80.90
2022-08-14T19:44:33.561Z,80.90
2022-08-14T19:46:39.721Z,83.20
2022-08-14T19:48:58.927Z,83.40
2022-08-14T19:51:02.848Z,82.30
2022-08-14T19:53:16.621Z,82.30
2022-08-14T19:55:20.781Z,81.90
2022-08-14T19:57:37.215Z,82.70
2022-08-14T19:59:57.640Z,83.10
2022-08-14T20:02:00.931Z,83.30
2022-08-14T20:04:45.295Z,83.70
2022-08-14T20:06:43.293Z,84.30
2022-08-14T20:11:07.295Z,85.80
2022-08-14T20:12:00.210Z,85.70
2022-08-14T20:14:00.130Z,86.00
2022-08-14T20:16:20.936Z,88.00
2022-08-14T20:18:49.289Z,88.10
2022-08-14T20:20:53.775Z,87.70
2022-08-14T20:22:56.414Z,87.20
2022-08-14T20:25:16.243Z,86.70
2022-08-14T20:27:24.909Z,85.40
2022-08-14T20:29:37.972Z,86.90
2022-08-14T20:31:43.080Z,88.50
2022-08-14T20:34:18.811Z,90.20
2022-08-14T20:36:29.203Z,90.90
2022-08-14T20:38:33.672Z,91.70
2022-08-14T20:40:57.677Z,92.10
2022-08-14T20:43:19.169Z,91.90
2022-08-14T20:45:29.085Z,92.00
2022-08-14T20:47:48.455Z,92.40
2022-08-14T20:50:17.111Z,92.30
2022-08-14T20:52:29.861Z,92.80
2022-08-14T20:54:36.390Z,92.80
2022-08-14T20:56:53.381Z,92.50
2022-08-14T20:58:56.013Z,92.20
2022-08-14T21:01:11.358Z,92.30
2022-08-14T21:03:28.904Z,92.40
2022-08-14T21:05:33.460Z,92.50
2022-08-14T21:07:38.616Z,92.90
2022-08-14T21:10:06.360Z,93.40
2022-08-14T21:12:34.395Z,92.10
2022-08-14T21:14:37.143Z,91.30
2022-08-14T21:16:58.612Z,90.90
2022-08-14T21:19:02.188Z,91.20
2022-08-14T21:21:08.636Z,92.20
2022-08-14T21:23:14.195Z,95.20
2022-08-14T21:25:17.006Z,96.50
2022-08-14T21:27:23.670Z,98.20
2022-08-14T21:29:26.142Z,99.00
2022-08-14T21:31:30.142Z,98.90
2022-08-14T21:33:34.702Z,99.10
2022-08-14T21:35:44.421Z,99.90
2022-08-14T21:37:49.408Z,99.80
2022-08-14T21:39:56.991Z,99.10
2022-08-14T21:42:01.826Z,99.00
2022-08-14T21:44:17.956Z,98.20
2022-08-14T21:46:24.190Z,97.50
2022-08-14T21:48:31.973Z,98.00
2022-08-14T21:50:56.400Z,98.80
2022-08-14T21:53:00.912Z,98.80
2022-08-14T21:55:10.213Z,99.00
2022-08-14T21:57:17.477Z,98.80
2022-08-14T21:59:29.243Z,99.30
2022-08-14T22:02:00.927Z,97.70
2022-08-14T22:03:58.118Z,97.50
2022-08-14T22:06:04.225Z,97.60
2022-08-14T22:08:07.525Z,98.60
2022-08-14T22:10:22.870Z,98.30
2022-08-14T22:12:58.565Z,97.50
2022-08-14T22:14:49.594Z,96.50
2022-08-14T22:17:01.465Z,95.60
2022-08-14T22:19:17.851Z,95.90
2022-08-14T22:21:22.648Z,96.40
2022-08-14T22:23:27.202Z,97.50
2022-08-14T22:25:33.340Z,98.20
2022-08-14T22:27:56.167Z,98.30
2022-08-14T22:29:59.491Z,98.40
2022-08-14T22:32:07.175Z,98.40
2022-08-14T22:34:15.015Z,99.30
2022-08-14T22:36:42.325Z,99.90
2022-08-14T22:38:49.965Z,99.90
2022-08-14T22:41:25.190Z,99.90
2022-08-14T22:43:16.227Z,99.90
2022-08-14T22:45:20.198Z,99.90
2022-08-14T22:47:26.442Z,99.90
2022-08-14T22:50:29.441Z,99.90
2022-08-14T22:52:49.331Z,99.90
2022-08-14T22:54:52.519Z,99.90
2022-08-14T22:56:57.818Z,99.90
2022-08-14T22:59:03.782Z,99.90
2022-08-14T23:01:17.696Z,99.90
2022-08-14T23:03:25.358Z,99.90
2022-08-14T23:05:40.052Z,99.90
2022-08-14T23:08:57.790Z,99.90
2022-08-14T23:10:33.949Z,99.90
2022-08-14T23:12:45.669Z,99.90
2022-08-14T23:14:48.438Z,99.90
2022-08-14T23:16:57.437Z,99.90
2022-08-14T23:19:00.253Z,99.90
2022-08-14T23:21:03.007Z,99.90
2022-08-14T23:23:13.063Z,99.90
2022-08-14T23:25:44.606Z,99.90
2022-08-14T23:28:03.582Z,99.90
2022-08-14T23:30:31.825Z,99.90
2022-08-14T23:32:37.461Z,99.90
2022-08-14T23:34:41.235Z,99.90
2022-08-14T23:36:55.950Z,99.90
2022-08-14T23:39:00.283Z,99.90
2022-08-14T23:41:11.656Z,99.90
2022-08-14T23:43:16.124Z,99.90
2022-08-14T23:45:19.090Z,99.90
2022-08-14T23:47:59.286Z,99.90
2022-08-14T23:50:07.740Z,99.90
2022-08-14T23:53:06.123Z,99.90
2022-08-14T23:54:50.197Z,99.90
2022-08-14T23:57:02.568Z,99.90
2022-08-14T23:59:10.376Z,99.90
